createdAt,value
2018-09-20T00:01:55.441Z,53.4
2018-09-20T00:06:57.859Z,53
2018-09-20T00:12:00.295Z,52.7
2018-09-20T00:17:02.720Z,52.4
2018-09-20T00:22:05.195Z,52.1
2018-09-20T00:27:07.658Z,52
2018-09-20T00:32:10.099Z,52.1
2018-09-20T00:37:12.497Z,52.1
2018-09-20T00:42:15.430Z,52.3
2018-09-20T00:47:17.397Z,52.5
2018-09-20T00:52:19.853Z,52.6
2018-09-20T00:57:22.333Z,52.6
2018-09-20T01:02:24.817Z,52.8
2018-09-20T01:07:27.153Z,52.9
2018-09-20T01:12:29.588Z,52.9
2018-09-20T01:17:32.012Z,53
2018-09-20T01:22:34.485Z,53.1
2018-09-20T01:27:36.901Z,53.2
2018-09-20T01:32:39.505Z,53.3
2018-09-20T01:37:41.781Z,53.4
2018-09-20T01:42:44.248Z,53.6
2018-09-20T01:47:46.665Z,53.6
2018-09-20T01:52:49.116Z,53.8
2018-09-20T01:57:51.545Z,53.8
2018-09-20T02:02:54.004Z,53.8
2018-09-20T02:07:56.429Z,54.1
2018-09-20T02:12:58.897Z,54.1
2018-09-20T02:18:01.304Z,54.4
2018-09-20T02:23:03.757Z,54.4
2018-09-20T02:28:06.205Z,54.6
2018-09-20T02:33:08.711Z,54.6
2018-09-20T02:38:11.065Z,54.7
2018-09-20T02:43:13.635Z,54.7
2018-09-20T02:48:15.962Z,54.8
2018-09-20T02:53:18.412Z,54.9
2018-09-20T02:58:20.831Z,55
2018-09-20T03:03:23.398Z,55.2
2018-09-20T03:08:25.719Z,55.3
2018-09-20T03:13:28.281Z,55.4
2018-09-20T03:18:30.600Z,55.6
2018-09-20T03:23:33.045Z,55.6
2018-09-20T03:28:35.496Z,55.7
2018-09-20T03:33:38.014Z,56
2018-09-20T03:38:40.569Z,56.1
2018-09-20T03:43:42.793Z,56.4
2018-09-20T03:48:45.240Z,56.5
2018-09-20T03:53:47.692Z,56.5
2018-09-20T03:58:50.204Z,56.5
2018-09-20T04:03:52.946Z,56.5
2018-09-20T04:08:55.001Z,56.5
2018-09-20T04:13:57.666Z,56.5
2018-09-20T04:19:00.193Z,56.7
2018-09-20T04:24:07.390Z,56.7
2018-09-20T04:29:04.836Z,57
2018-09-20T04:34:07.429Z,57.2
2018-09-20T04:39:09.728Z,57.2
2018-09-20T04:44:12.109Z,57.4
2018-09-20T04:49:14.708Z,57.4
2018-09-20T04:54:16.996Z,57.5
2018-09-20T04:59:19.419Z,57.5
2018-09-20T05:04:21.843Z,57.6
2018-09-20T05:09:24.304Z,57.7
2018-09-20T05:14:26.808Z,57.8
2018-09-20T05:19:29.196Z,58
2018-09-20T05:24:31.621Z,58.2
2018-09-20T05:29:34.052Z,58.4
2018-09-20T05:34:36.537Z,58.4
2018-09-20T05:39:38.966Z,58.5
2018-09-20T05:44:41.513Z,58.5
2018-09-20T05:49:43.845Z,58.6
2018-09-20T05:54:46.255Z,58.6
2018-09-20T05:59:48.704Z,59
2018-09-20T06:04:51.143Z,59.1
2018-09-20T06:09:53.565Z,59
2018-09-20T06:14:56.015Z,59
2018-09-20T06:19:58.457Z,58.9
2018-09-20T06:25:01.169Z,58.9
2018-09-20T06:30:03.347Z,58.9
2018-09-20T06:35:05.872Z,59
2018-09-20T06:40:08.396Z,59.5
2018-09-20T06:45:10.669Z,60
2018-09-20T06:50:13.160Z,59.9
2018-09-20T06:55:15.584Z,59.8
2018-09-20T07:00:18.067Z,59.6
2018-09-20T07:05:20.505Z,59.6
2018-09-20T07:10:22.861Z,59.7
2018-09-20T07:15:25.337Z,59.9
2018-09-20T07:20:27.748Z,60
2018-09-20T07:25:30.396Z,59.8
2018-09-20T07:30:32.634Z,59.9
2018-09-20T07:35:35.068Z,59.9
2018-09-20T07:40:37.572Z,59.8
2018-09-20T07:45:39.964Z,60
2018-09-20T07:50:42.410Z,59.9
2018-09-20T07:55:44.847Z,59.7
2018-09-20T08:51:11.834Z,53.3
2018-09-20T08:56:14.238Z,52.6
2018-09-20T09:01:16.598Z,51.6
2018-09-20T09:06:19.069Z,51
2018-09-20T09:11:21.609Z,49.8
2018-09-20T09:16:23.953Z,49.3
2018-09-20T09:21:26.344Z,48.5
2018-09-20T09:26:28.815Z,48.1
2018-09-20T09:31:31.264Z,47.6
2018-09-20T09:36:33.658Z,47.2
2018-09-20T09:41:36.185Z,46.6
2018-09-20T09:46:38.606Z,46.6
2018-09-20T09:51:41.084Z,46
2018-09-20T09:56:43.425Z,46.2
2018-09-20T10:01:45.925Z,46.1
2018-09-20T10:06:48.382Z,45.9
2018-09-20T10:11:50.791Z,45.6
2018-09-20T10:16:53.305Z,45.7
2018-09-20T10:21:55.644Z,45.5
2018-09-20T10:26:58.088Z,45.3
2018-09-20T10:32:00.559Z,45.2
2018-09-20T10:37:03.072Z,45
2018-09-20T10:42:05.452Z,45.2
2018-09-20T10:47:07.970Z,45.2
2018-09-20T10:52:10.312Z,44.4
2018-09-20T10:57:12.766Z,44.1
2018-09-20T11:02:15.401Z,42.1
2018-09-20T11:07:17.669Z,41.4
2018-09-20T11:12:20.066Z,42.2
2018-09-20T11:17:22.515Z,42.1
2018-09-20T11:22:25.080Z,42.2
2018-09-20T11:27:27.429Z,42.4
2018-09-20T11:32:29.835Z,42.3
2018-09-20T11:37:32.320Z,41.9
2018-09-20T11:42:34.772Z,40.4
2018-09-20T11:47:37.247Z,39.5
2018-09-20T11:52:39.613Z,39.6
2018-09-20T11:57:42.302Z,37.9
2018-09-20T12:02:44.492Z,36.1
2018-09-20T12:07:46.921Z,35.8
2018-09-20T12:12:49.392Z,34.2
2018-09-20T12:17:51.824Z,33.3
2018-09-20T12:22:54.251Z,34.4
2018-09-20T12:27:56.710Z,33.3
2018-09-20T12:32:59.157Z,33.5
2018-09-20T12:38:02.014Z,30.5
2018-09-20T12:43:04.098Z,32.2
2018-09-20T12:48:06.539Z,33.3
2018-09-20T12:53:08.905Z,30.9
2018-09-20T12:58:11.358Z,30.2
2018-09-20T13:03:13.775Z,30.4
2018-09-20T13:08:16.903Z,29.8
2018-09-20T13:13:18.782Z,28.1
2018-09-20T13:18:21.182Z,28.8
2018-09-20T13:23:23.668Z,28
2018-09-20T13:28:26.000Z,28.9
2018-09-20T13:33:28.596Z,29.4
2018-09-20T13:38:30.970Z,28.9
2018-09-20T13:43:33.614Z,28.6
2018-09-20T13:48:35.762Z,29.2
2018-09-20T13:53:38.313Z,29.7
2018-09-20T13:58:40.653Z,29.7
2018-09-20T14:03:43.149Z,29.4
2018-09-20T14:08:45.602Z,28.8
2018-09-20T14:13:48.420Z,27.4
2018-09-20T14:18:50.474Z,26.7
2018-09-20T14:23:53.012Z,27.3
2018-09-20T14:28:55.688Z,27.1
2018-09-20T14:33:57.768Z,26.9
2018-09-20T14:39:00.212Z,27.1
2018-09-20T14:44:02.723Z,25.8
2018-09-20T14:49:05.118Z,24.8
2018-09-20T14:54:07.552Z,24.7
2018-09-20T14:59:10.009Z,24.8
2018-09-20T15:04:12.412Z,24.5
2018-09-20T15:09:14.849Z,24.4
2018-09-20T15:14:17.394Z,25
2018-09-20T15:19:19.736Z,25.1
2018-09-20T15:24:22.451Z,26.2
2018-09-20T15:29:24.621Z,25.7
2018-09-20T15:34:27.071Z,25.3
2018-09-20T15:39:29.555Z,25.5
2018-09-20T15:44:32.254Z,26.5
2018-09-20T15:49:34.380Z,26.8
2018-09-20T15:54:36.861Z,27.1
2018-09-20T15:59:39.580Z,27.6
2018-09-20T16:04:41.776Z,27.5
2018-09-20T16:09:44.237Z,27.5
2018-09-20T16:14:46.766Z,27.9
2018-09-20T16:19:49.276Z,28.9
2018-09-20T16:24:51.592Z,30
2018-09-20T16:29:53.925Z,31.4
2018-09-20T16:34:56.391Z,32.3
2018-09-20T16:39:58.818Z,33
2018-09-20T16:45:01.359Z,33.3
2018-09-20T16:50:03.821Z,34
2018-09-20T16:55:06.294Z,34.6
2018-09-20T17:00:08.592Z,35.2
2018-09-20T17:05:11.154Z,36.2
2018-09-20T17:10:13.487Z,36.9
2018-09-20T17:15:15.963Z,37.6
2018-09-20T17:20:18.668Z,38.1
2018-09-20T17:25:21.152Z,38.7
2018-09-20T17:30:23.249Z,39.1
2018-09-20T17:35:25.714Z,39.5
2018-09-20T17:40:28.148Z,40
2018-09-20T17:45:30.594Z,40.3
2018-09-20T17:50:33.075Z,40.7
2018-09-20T17:55:35.484Z,41
2018-09-20T18:00:37.934Z,0
2018-09-20T18:05:40.358Z,41.2
2018-09-20T18:10:42.777Z,41.8
2018-09-20T18:15:45.199Z,42
2018-09-20T18:20:47.661Z,42.3
2018-09-20T18:25:50.129Z,42.5
2018-09-20T18:30:52.533Z,42.7
2018-09-20T18:35:55.027Z,43
2018-09-20T18:40:57.411Z,43.4
2018-09-20T18:45:59.843Z,43.7
2018-09-20T18:51:02.309Z,44
2018-09-20T18:56:04.743Z,44.3
2018-09-20T19:01:07.413Z,44.5
2018-09-20T19:06:09.631Z,45
2018-09-20T19:11:12.154Z,44.9
2018-09-20T19:16:14.756Z,44.7
2018-09-20T19:21:16.963Z,44.7
2018-09-20T19:26:19.493Z,44.9
2018-09-20T19:31:21.835Z,45
2018-09-20T19:36:24.263Z,45.1
2018-09-20T19:41:26.703Z,45.2
2018-09-20T19:46:29.158Z,45.4
2018-09-20T19:51:31.599Z,45.7
2018-09-20T19:56:34.045Z,46
2018-09-20T20:01:36.470Z,46.3
2018-09-20T20:06:38.909Z,46.6
2018-09-20T20:11:41.412Z,46.8
2018-09-20T20:16:43.807Z,46.9
2018-09-20T20:21:46.301Z,47.2
2018-09-20T20:26:48.676Z,47.5
2018-09-20T20:31:51.197Z,47.6
2018-09-20T20:36:53.583Z,47.8
2018-09-20T20:41:55.989Z,47.9
2018-09-20T20:46:58.435Z,48.2
2018-09-20T20:52:00.909Z,48.2
2018-09-20T20:57:03.331Z,48.3
2018-09-20T21:02:05.764Z,48.7
2018-09-20T21:07:08.214Z,48.7
2018-09-20T21:12:10.648Z,48.8
2018-09-20T21:17:13.170Z,49.1
2018-09-20T21:22:15.523Z,49
2018-09-20T21:27:17.966Z,49
2018-09-20T21:32:20.405Z,49.2
2018-09-20T21:37:22.928Z,49.3
2018-09-20T21:42:25.436Z,49.3
2018-09-20T21:47:27.755Z,49.3
2018-09-20T21:52:30.237Z,49.5
2018-09-20T21:57:32.619Z,49.6
2018-09-20T22:02:35.088Z,49.8
2018-09-20T22:07:37.852Z,49.8
2018-09-20T22:12:39.956Z,49.9
2018-09-20T22:17:42.375Z,49.9
2018-09-20T22:22:44.829Z,49.9
2018-09-20T22:27:47.312Z,50.1
2018-09-20T22:32:49.700Z,50.4
2018-09-20T22:37:52.230Z,50.7
2018-09-20T22:42:54.610Z,51
2018-09-20T22:47:57.036Z,51.3
2018-09-20T22:52:59.487Z,51.4
2018-09-20T22:58:02.109Z,51.7
2018-09-20T23:03:04.367Z,51.9
2018-09-20T23:08:06.807Z,51.9
2018-09-20T23:13:09.227Z,52.1
2018-09-20T23:18:11.723Z,52.1
2018-09-20T23:23:14.119Z,52
2018-09-20T23:28:16.655Z,51.7
2018-09-20T23:33:19.022Z,51.9
2018-09-20T23:38:21.448Z,52.2
2018-09-20T23:43:23.963Z,52.3
2018-09-20T23:48:26.316Z,52.2
2018-09-20T23:53:28.765Z,52.1
2018-09-20T23:58:31.209Z,52
